Airfield :
LOGIN :

Register | Disclaimer

   EN    FR    IT 

 










Legend :    VFR   Marginal VFR   IFR   Intensive IFR   Very Intensive IFR
Visi :
Ceiling :
>= 8 km
>= 3000ft
5 to 8 km
1000 to 3000 ft
1500m to 5 km
500 to 1000 ft
800 to 1500m
200 to 500 ft
< 800m
< 200 ft
Symbols :   Thunderstorms  Fog  Heavy snow  Heavy precipitations  Wind > 20 kt
SIGMETs :     Misc.  Thunderstorms  Icing  Turbulence  Mountain Waves  Volcanic Ashes






- Airport Elevation : 160 ft
- IATA code : LRT


LFRH - Lorient Lann Bihoue

CURRENT METAR :
  • 160500Z AUTO 22017KT 5000 -DZ BR OVC004/// ///TCU 16/16 Q1004 TEMPO 1400 VV/// BECMG 21015G25KT

EXPIRED METARs :
  • 160430Z AUTO 22017KT 5000 -DZ BR OVC003 16/16 Q1004 TEMPO 1400 VV/// BECMG 21015G25KT
  • 160400Z AUTO 22019KT 4600 -DZ BR OVC003 16/15 Q1004 TEMPO 1400 VV/// BECMG 21015G25KT
  • 160330Z AUTO 22019KT 4000 -DZ BR OVC004/// ///TCU 16/15 Q1004 TEMPO 1400 VV/// BECMG 21015G25KT
  • 160300Z AUTO 22019G31KT 5000 -DZ BR OVC003/// ///TCU 16/15 Q1005 TEMPO 1400 VV///
  • 160230Z AUTO 22018KT 4600 -DZ BR OVC003 15/15 Q1005 TEMPO 1400 VV/// BECMG 21015G25KT

TAF TAF LFRH
Valid from the 16 at 00:00 until the 17 at 00:00 UTC


152300Z 1600/1624 21015G25KT 8000 DZ BKN008 OVC012
TEMPO 1600/1615 2500 RADZ BKN003 OVC006
PROB40
TEMPO 1600/1603 21025G35KT
PROB40
TEMPO 1603/1610 1400 VV///
BECMG 1609/1610 21020G30KT
BECMG 1616/1618 28010KT NSW BKN015



MET'MAP, your aeronautical weather chart ! - Copyright ORBIFLY December 2007 - Disclaimer

ORBIFLY MET'MAP TEAM :

Programming & Development : Alexandra Zaïnal
Concept & Development : Baudouin d'Aumeries
Co-Development & Prog : Marc-Olivier Méhu
Technical & hardware support : Manuel Goepfert

Contact : metmap@orbifly.com




SOURCES & CREDITS :

   NOAA